Time;durP1;ratioP1;P1;durP2;ratioP2;P2;SDS_P1;SDS_P2;PMS_P1;PMS_P2;Temp;Humidity;BMP_temperature;BMP_pressure;BME280_temperature;BME280_humidity;BME280_pressure;Samples;Min_cycle;Max_cycle;Signal;HPM_P1;HPM_P2
2021/10/05 00:00:53;;;;;;;14.57;9.27;;;13.20;99.90;;;;;;5052512;28;20471;-87
2021/10/05 00:03:19;;;;;;;13.23;8.68;;;13.10;99.90;;;;;;5033268;28;20380;-87
2021/10/05 00:05:46;;;;;;;10.17;8.67;;;13.10;99.90;;;;;;5040692;28;20411;-87
2021/10/05 00:08:11;;;;;;;13.25;9.05;;;13.10;99.90;;;;;;5051658;28;20372;-86
2021/10/05 00:10:37;;;;;;;10.67;8.70;;;13.20;99.90;;;;;;5050625;28;20380;-87
2021/10/05 00:13:02;;;;;;;12.48;8.68;;;13.20;99.90;;;;;;5051006;28;20384;-87
2021/10/05 00:15:28;;;;;;;11.20;8.40;;;13.20;99.90;;;;;;5032001;28;20421;-86
2021/10/05 00:17:54;;;;;;;9.03;7.50;;;13.30;99.90;;;;;;5013971;28;20468;-87
2021/10/05 00:20:19;;;;;;;8.73;7.22;;;13.30;99.90;;;;;;5014140;28;20370;-87
2021/10/05 00:22:45;;;;;;;12.03;8.33;;;13.40;99.90;;;;;;5014310;28;20392;-86
2021/10/05 00:25:12;;;;;;;12.07;8.53;;;13.40;99.90;;;;;;5032337;28;20395;-87
2021/10/05 00:27:37;;;;;;;11.35;8.40;;;13.30;99.90;;;;;;5051223;28;20376;-87
2021/10/05 00:30:05;;;;;;;9.57;8.07;;;13.30;99.90;;;;;;5034267;28;20375;-87
2021/10/05 00:32:31;;;;;;;12.23;8.35;;;13.30;99.90;;;;;;5051529;28;20391;-87
2021/10/05 00:34:57;;;;;;;10.27;7.70;;;13.40;99.90;;;;;;5033561;28;20371;-88
2021/10/05 00:37:22;;;;;;;10.88;7.47;;;13.40;99.90;;;;;;5051836;28;20388;-87
2021/10/05 00:39:48;;;;;;;9.87;7.53;;;13.50;99.90;;;;;;5034359;28;20946;-87
2021/10/05 00:42:14;;;;;;;12.23;8.55;;;13.50;99.90;;;;;;5052018;28;20466;-87
2021/10/05 00:44:40;;;;;;;9.27;7.90;;;13.40;99.90;;;;;;5034617;28;20377;-87
2021/10/05 00:47:10;;;;;;;8.85;7.95;;;13.50;99.90;;;;;;5032031;28;20732;-87
2021/10/05 00:49:37;;;;;;;9.40;8.00;;;13.40;99.90;;;;;;5043465;28;20380;-86
2021/10/05 00:52:04;;;;;;;11.63;9.33;;;13.30;99.90;;;;;;5033328;28;20422;-87
2021/10/05 00:54:34;;;;;;;9.40;8.40;;;13.40;99.90;;;;;;5017247;28;20736;-88
2021/10/05 00:57:01;;;;;;;10.63;8.73;;;13.50;99.90;;;;;;5013261;28;20385;-86
2021/10/05 00:59:27;;;;;;;10.73;9.20;;;13.40;99.90;;;;;;5013616;28;20468;-87
2021/10/05 01:01:52;;;;;;;12.27;8.63;;;13.40;99.90;;;;;;5013677;28;20468;-87
2021/10/05 01:04:18;;;;;;;12.35;8.98;;;13.40;99.90;;;;;;5027394;28;20466;-87
2021/10/05 01:07:05;;;;;;;12.35;8.48;;;13.40;99.90;;;;;;5033449;28;20379;-87
2021/10/05 01:09:32;;;;;;;11.65;8.63;;;13.50;99.90;;;;;;5033231;28;20376;-87
2021/10/05 01:11:58;;;;;;;11.85;9.43;;;13.60;99.90;;;;;;5033846;28;20857;-88
2021/10/05 01:14:23;;;;;;;10.00;8.33;;;13.50;99.90;;;;;;5034242;28;20380;-87
2021/10/05 01:16:51;;;;;;;11.75;8.98;;;13.50;99.90;;;;;;5033787;28;20366;-88
2021/10/05 01:19:16;;;;;;;9.43;8.43;;;13.60;99.90;;;;;;5051851;28;20406;-86
2021/10/05 01:21:42;;;;;;;12.65;8.55;;;13.60;99.90;;;;;;5035020;28;20418;-88
2021/10/05 01:24:14;;;;;;;11.17;8.37;;;13.60;99.90;;;;;;5016714;28;20416;-87
2021/10/05 01:26:40;;;;;;;11.18;8.70;;;13.60;99.90;;;;;;5014123;28;20365;-87
2021/10/05 01:29:07;;;;;;;11.27;9.10;;;13.60;99.90;;;;;;5031851;28;20371;-87
2021/10/05 01:31:41;;;;;;;10.73;8.55;;;13.60;99.90;;;;;;5051336;28;20374;-87
2021/10/05 01:34:07;;;;;;;10.32;8.68;;;13.60;99.90;;;;;;5016981;28;20465;-87
2021/10/05 01:36:34;;;;;;;11.43;9.13;;;13.60;99.90;;;;;;5031657;28;20401;-87
2021/10/05 01:39:00;;;;;;;11.65;8.98;;;13.60;99.90;;;;;;5013514;28;20514;-87
2021/10/05 01:41:26;;;;;;;11.20;8.77;;;13.60;99.90;;;;;;5014409;28;20393;-87
2021/10/05 01:43:52;;;;;;;10.13;8.20;;;13.60;99.90;;;;;;5013413;28;20385;-86
2021/10/05 01:46:17;;;;;;;11.90;9.40;;;13.60;99.90;;;;;;5013591;28;20469;-87
2021/10/05 01:48:44;;;;;;;12.07;9.47;;;13.70;99.90;;;;;;5013814;28;20408;-87
2021/10/05 01:51:11;;;;;;;10.35;8.65;;;13.70;99.90;;;;;;5014394;28;20394;-87
2021/10/05 01:53:37;;;;;;;8.77;7.75;;;13.70;99.90;;;;;;5032056;28;20399;-87
2021/10/05 01:56:05;;;;;;;8.93;8.02;;;13.70;99.90;;;;;;5034729;28;20379;-87
2021/10/05 01:58:30;;;;;;;10.23;8.93;;;13.70;99.90;;;;;;5017126;28;20771;-87
2021/10/05 02:00:56;;;;;;;10.53;8.60;;;13.70;99.90;;;;;;5035211;28;20374;-87
2021/10/05 02:03:22;;;;;;;9.32;8.32;;;13.70;99.90;;;;;;5037361;28;21137;-87
2021/10/05 02:05:48;;;;;;;10.70;8.13;;;13.70;99.90;;;;;;5032572;28;20779;-87
2021/10/05 02:08:17;;;;;;;9.47;8.47;;;13.70;99.90;;;;;;5017025;28;20369;-87
2021/10/05 02:10:44;;;;;;;12.02;9.15;;;13.70;99.90;;;;;;5017230;28;20385;-87
2021/10/05 02:13:11;;;;;;;11.95;9.23;;;13.70;99.90;;;;;;5034666;28;20396;-87
2021/10/05 02:15:37;;;;;;;13.30;8.73;;;13.70;99.90;;;;;;5051858;28;20907;-87
2021/10/05 02:18:04;;;;;;;12.70;9.10;;;13.60;99.90;;;;;;5016712;28;20389;-87
2021/10/05 02:20:29;;;;;;;13.90;9.23;;;13.70;99.90;;;;;;5018441;28;20365;-87
2021/10/05 02:22:55;;;;;;;13.60;9.60;;;13.70;99.90;;;;;;5034115;28;20713;-87
2021/10/05 02:25:21;;;;;;;12.93;9.40;;;13.70;99.90;;;;;;5034084;28;20377;-87
2021/10/05 02:27:46;;;;;;;12.38;9.43;;;13.70;99.90;;;;;;5035875;28;20415;-87
2021/10/05 02:30:12;;;;;;;9.83;8.47;;;13.70;99.90;;;;;;5036124;28;20441;-87
2021/10/05 02:32:39;;;;;;;12.15;8.90;;;13.70;99.90;;;;;;5054293;28;20391;-87
2021/10/05 02:35:05;;;;;;;12.57;9.48;;;13.70;99.90;;;;;;5038396;28;20416;-87
2021/10/05 02:37:32;;;;;;;11.52;8.65;;;13.70;99.90;;;;;;5016650;28;20370;-87
2021/10/05 02:39:59;;;;;;;13.23;9.07;;;13.80;99.90;;;;;;5016375;28;20514;-88
2021/10/05 02:42:25;;;;;;;11.53;8.47;;;13.70;99.90;;;;;;5035326;28;20450;-87
2021/10/05 02:44:53;;;;;;;12.15;8.75;;;13.70;99.90;;;;;;5036509;28;20384;-87
2021/10/05 02:47:19;;;;;;;10.77;8.50;;;13.70;99.90;;;;;;5018195;28;20811;-87
2021/10/05 02:49:45;;;;;;;9.93;7.83;;;13.60;99.90;;;;;;5016729;28;20469;-87
2021/10/05 02:52:15;;;;;;;12.93;7.77;;;13.70;99.90;;;;;;5051133;28;20494;-87
2021/10/05 02:54:42;;;;;;;9.77;8.13;;;13.70;99.90;;;;;;5054762;28;20368;-87
2021/10/05 02:57:08;;;;;;;10.13;8.20;;;13.70;99.90;;;;;;5053600;28;20461;-87
2021/10/05 02:59:34;;;;;;;13.55;8.77;;;13.80;99.90;;;;;;5036294;28;20380;-87
2021/10/05 03:01:59;;;;;;;16.65;8.88;;;13.80;99.90;;;;;;5038907;28;20381;-87
2021/10/05 03:04:26;;;;;;;8.20;7.40;;;13.80;99.90;;;;;;5017178;28;20464;-86
2021/10/05 03:06:52;;;;;;;10.07;8.05;;;13.80;99.90;;;;;;5016225;28;20860;-87
2021/10/05 03:09:18;;;;;;;9.63;7.43;;;13.80;99.90;;;;;;5016673;28;20377;-87
2021/10/05 03:11:43;;;;;;;9.48;7.20;;;13.80;99.90;;;;;;5033118;28;20862;-88
2021/10/05 03:14:09;;;;;;;14.30;7.03;;;13.80;99.90;;;;;;5034563;28;20390;-87
2021/10/05 03:16:35;;;;;;;11.02;7.22;;;13.70;99.90;;;;;;5036469;28;20450;-86
2021/10/05 03:19:00;;;;;;;10.77;7.50;;;13.80;99.90;;;;;;5028127;28;20890;-87
2021/10/05 03:21:26;;;;;;;12.43;7.45;;;13.80;99.90;;;;;;5016253;28;21042;-87
2021/10/05 03:23:51;;;;;;;9.73;7.35;;;13.80;99.90;;;;;;5034011;28;20381;-87
2021/10/05 03:26:17;;;;;;;8.47;7.07;;;13.70;99.90;;;;;;5014945;28;20381;-86
2021/10/05 03:28:44;;;;;;;10.10;7.20;;;13.70;99.90;;;;;;5020014;28;20454;-86
2021/10/05 03:31:13;;;;;;;13.33;8.00;;;13.80;99.90;;;;;;5034853;28;20943;-87
2021/10/05 03:33:40;;;;;;;10.10;7.70;;;13.80;99.90;;;;;;5052120;28;20438;-87
2021/10/05 03:36:06;;;;;;;11.75;7.40;;;13.70;99.90;;;;;;5052481;28;20368;-86
2021/10/05 03:38:32;;;;;;;10.50;6.70;;;13.70;99.90;;;;;;5031315;28;20741;-86
2021/10/05 03:41:00;;;;;;;8.55;7.18;;;13.70;99.90;;;;;;5031883;28;20374;-87
2021/10/05 03:43:27;;;;;;;9.90;6.68;;;13.70;99.90;;;;;;5014039;28;20424;-86
2021/10/05 03:45:52;;;;;;;10.50;6.75;;;13.60;99.90;;;;;;5014336;28;20384;-87
2021/10/05 03:48:18;;;;;;;10.43;6.90;;;13.50;99.90;;;;;;5037314;28;20380;-86
2021/10/05 03:50:44;;;;;;;12.67;7.23;;;13.50;99.90;;;;;;5034104;28;20883;-85
2021/10/05 03:53:15;;;;;;;11.32;7.60;;;13.60;99.90;;;;;;5034617;28;20418;-85
2021/10/05 03:55:49;;;;;;;9.93;6.70;;;13.50;99.90;;;;;;5035094;28;20384;-85
2021/10/05 03:58:16;;;;;;;11.43;7.25;;;13.50;99.90;;;;;;5028558;28;20400;-86
2021/10/05 04:00:42;;;;;;;9.90;6.88;;;13.50;99.90;;;;;;5030221;28;20944;-86
2021/10/05 04:03:07;;;;;;;10.68;6.68;;;13.50;99.90;;;;;;5051478;28;20418;-86
2021/10/05 04:05:33;;;;;;;11.03;6.63;;;13.50;99.90;;;;;;5051409;28;20410;-86
2021/10/05 04:08:00;;;;;;;14.13;7.25;;;13.50;99.90;;;;;;5032152;28;20381;-85
2021/10/05 04:10:25;;;;;;;10.67;6.50;;;13.50;99.90;;;;;;5022474;28;20387;-86
2021/10/05 04:12:51;;;;;;;12.13;6.57;;;13.50;99.90;;;;;;5033400;28;20897;-87
2021/10/05 04:15:16;;;;;;;9.38;6.30;;;13.50;99.90;;;;;;5049706;28;20418;-86
2021/10/05 04:17:42;;;;;;;11.47;6.40;;;13.50;99.90;;;;;;5018016;28;20392;-86
2021/10/05 04:20:08;;;;;;;9.75;6.60;;;13.40;99.90;;;;;;5033294;28;20376;-87
2021/10/05 04:22:34;;;;;;;8.75;6.97;;;13.40;99.90;;;;;;5050976;28;20368;-86
2021/10/05 04:24:59;;;;;;;11.73;7.20;;;13.30;99.90;;;;;;5033459;28;20383;-86
2021/10/05 04:27:28;;;;;;;11.32;7.28;;;13.20;99.90;;;;;;5031459;28;20771;-86
2021/10/05 04:29:53;;;;;;;11.52;6.68;;;13.20;99.90;;;;;;5031457;28;20381;-86
2021/10/05 04:32:19;;;;;;;9.15;6.70;;;13.10;99.90;;;;;;5032026;28;20405;-86
2021/10/05 04:34:48;;;;;;;13.80;7.17;;;13.10;99.90;;;;;;5031037;28;20724;-86
2021/10/05 04:37:13;;;;;;;11.80;6.97;;;13.10;99.90;;;;;;5013231;28;20385;-85
2021/10/05 04:39:39;;;;;;;12.48;7.03;;;13.10;99.90;;;;;;5030872;28;20921;-86
2021/10/05 04:42:14;;;;;;;11.60;6.50;;;13.10;99.90;;;;;;5029597;28;20789;-86
2021/10/05 04:44:39;;;;;;;12.52;7.05;;;13.10;99.90;;;;;;5050867;28;20860;-87
2021/10/05 04:47:05;;;;;;;10.13;6.47;;;13.10;99.90;;;;;;5043786;28;20384;-85
2021/10/05 04:49:31;;;;;;;12.10;6.53;;;13.10;99.90;;;;;;5031507;28;20374;-87
2021/10/05 04:51:57;;;;;;;12.10;6.63;;;13.00;99.90;;;;;;5030634;28;20373;-85
2021/10/05 04:54:23;;;;;;;12.57;6.28;;;12.90;99.90;;;;;;5018996;28;20431;-87
2021/10/05 04:56:49;;;;;;;11.07;6.55;;;13.00;99.90;;;;;;5020604;28;20382;-86
2021/10/05 04:59:16;;;;;;;10.57;5.80;;;13.00;99.90;;;;;;5013374;28;20386;-86
2021/10/05 05:01:42;;;;;;;11.43;5.60;;;13.00;99.90;;;;;;5031671;28;20389;-86
2021/10/05 05:04:09;;;;;;;11.70;5.50;;;13.00;99.90;;;;;;5030842;28;20421;-87
2021/10/05 05:06:35;;;;;;;10.80;5.43;;;13.00;99.90;;;;;;5038312;28;20415;-87
2021/10/05 05:09:00;;;;;;;10.27;5.95;;;12.90;99.90;;;;;;5034742;28;20784;-85
2021/10/05 05:11:26;;;;;;;11.97;5.90;;;12.90;99.90;;;;;;5014733;28;20381;-85
2021/10/05 05:13:51;;;;;;;11.85;6.00;;;12.90;99.90;;;;;;5050583;28;20391;-86
2021/10/05 05:16:17;;;;;;;8.87;5.47;;;12.90;99.90;;;;;;5049032;28;20874;-86
2021/10/05 05:18:43;;;;;;;9.90;5.27;;;12.90;99.90;;;;;;5031887;28;20376;-87
2021/10/05 05:21:08;;;;;;;8.98;5.50;;;12.90;99.90;;;;;;5050420;28;20722;-85
2021/10/05 05:23:34;;;;;;;9.27;5.57;;;12.80;99.90;;;;;;5050323;28;20368;-87
2021/10/05 05:26:00;;;;;;;13.52;6.10;;;12.70;99.90;;;;;;5050753;28;20400;-86
2021/10/05 05:28:25;;;;;;;10.50;6.20;;;12.70;99.90;;;;;;5032329;28;20402;-86
2021/10/05 05:30:51;;;;;;;11.37;6.77;;;12.70;99.90;;;;;;5050329;28;20834;-86
2021/10/05 05:33:16;;;;;;;11.88;6.68;;;12.60;99.90;;;;;;5049583;28;20391;-86
2021/10/05 05:35:42;;;;;;;12.43;6.50;;;12.70;99.90;;;;;;5048903;28;20379;-85
2021/10/05 05:38:07;;;;;;;11.57;6.32;;;12.60;99.90;;;;;;5035936;28;20367;-86
2021/10/05 05:40:33;;;;;;;11.97;6.27;;;12.60;99.90;;;;;;5052923;28;20384;-86
2021/10/05 05:42:58;;;;;;;12.57;6.95;;;12.60;99.90;;;;;;5054169;28;20363;-87
2021/10/05 05:45:24;;;;;;;9.67;6.33;;;12.50;99.90;;;;;;5054247;28;20575;-87
2021/10/05 05:47:50;;;;;;;11.82;6.57;;;12.50;99.90;;;;;;5035623;28;20896;-86
2021/10/05 05:50:16;;;;;;;12.50;6.40;;;12.50;99.90;;;;;;5036201;28;20707;-87
2021/10/05 05:52:42;;;;;;;10.90;5.90;;;12.50;99.90;;;;;;5054088;28;20402;-87
2021/10/05 05:55:08;;;;;;;14.45;6.65;;;12.50;99.90;;;;;;5054387;28;20379;-87
2021/10/05 05:57:34;;;;;;;8.88;5.97;;;12.50;99.90;;;;;;5035470;28;20394;-84
2021/10/05 05:59:59;;;;;;;10.95;5.85;;;12.50;99.90;;;;;;5036107;28;20360;-86
2021/10/05 06:02:25;;;;;;;9.83;6.03;;;12.60;99.90;;;;;;5035806;28;20419;-84
2021/10/05 06:04:51;;;;;;;11.05;6.32;;;12.60;99.90;;;;;;5053752;28;20383;-86
2021/10/05 06:07:17;;;;;;;11.03;5.63;;;12.50;99.90;;;;;;5035460;28;20382;-88
2021/10/05 06:09:43;;;;;;;9.93;5.80;;;12.50;99.90;;;;;;5053564;28;20426;-86
2021/10/05 06:12:13;;;;;;;15.67;6.00;;;12.50;99.90;;;;;;5053524;28;20443;-85
2021/10/05 06:14:40;;;;;;;11.85;5.80;;;12.60;99.90;;;;;;5036022;28;20375;-86
2021/10/05 06:17:06;;;;;;;11.52;5.95;;;12.70;99.90;;;;;;5052219;28;20855;-87
2021/10/05 06:19:32;;;;;;;10.60;5.77;;;12.70;99.90;;;;;;5053620;28;20449;-86
2021/10/05 06:21:59;;;;;;;10.70;6.00;;;12.60;99.90;;;;;;5035612;28;20372;-85
2021/10/05 06:24:24;;;;;;;9.97;5.83;;;12.60;99.90;;;;;;5035747;28;20430;-87
2021/10/05 06:26:50;;;;;;;11.57;6.07;;;12.50;99.90;;;;;;5035489;28;20888;-87
2021/10/05 06:29:16;;;;;;;15.07;5.85;;;12.50;99.90;;;;;;5053416;28;20374;-86
2021/10/05 06:31:41;;;;;;;11.13;5.93;;;12.50;99.90;;;;;;5035651;28;20523;-85
2021/10/05 06:34:07;;;;;;;11.48;5.82;;;12.60;99.90;;;;;;5035416;28;20387;-85
2021/10/05 06:36:34;;;;;;;10.55;6.00;;;12.60;99.90;;;;;;5053328;28;20387;-85
2021/10/05 06:38:59;;;;;;;9.70;5.70;;;12.60;99.90;;;;;;5047295;28;20374;-86
2021/10/05 06:41:25;;;;;;;10.88;6.20;;;12.60;99.90;;;;;;5049112;28;20861;-86
2021/10/05 06:43:51;;;;;;;9.82;6.00;;;12.60;99.90;;;;;;5032883;28;20479;-86
2021/10/05 06:46:17;;;;;;;12.35;5.40;;;12.60;99.90;;;;;;5029323;28;20454;-84
2021/10/05 06:48:43;;;;;;;12.00;5.73;;;12.60;99.90;;;;;;5034749;28;20383;-85
2021/10/05 06:51:08;;;;;;;12.40;6.13;;;12.60;99.90;;;;;;5035343;28;20409;-86
2021/10/05 06:53:34;;;;;;;11.52;5.88;;;12.60;99.90;;;;;;5035016;28;20507;-85
2021/10/05 06:55:59;;;;;;;14.40;6.17;;;12.60;99.90;;;;;;5028835;28;20879;-88
2021/10/05 06:58:25;;;;;;;10.63;6.30;;;12.60;99.90;;;;;;5032813;28;20382;-85
2021/10/05 07:00:51;;;;;;;10.32;5.55;;;12.60;99.90;;;;;;5016641;28;20473;-86
2021/10/05 07:03:17;;;;;;;12.83;6.00;;;12.70;99.90;;;;;;5029144;28;20377;-87
2021/10/05 07:05:46;;;;;;;11.50;6.10;;;12.70;99.90;;;;;;5052719;28;20379;-86
2021/10/05 07:08:14;;;;;;;10.73;6.00;;;12.70;99.90;;;;;;5034808;28;20376;-86
2021/10/05 07:10:40;;;;;;;11.27;6.22;;;12.70;99.90;;;;;;5035259;28;20869;-86
2021/10/05 07:13:06;;;;;;;12.83;6.47;;;12.80;99.90;;;;;;5035216;28;20403;-84
2021/10/05 07:15:32;;;;;;;11.90;6.00;;;12.80;99.90;;;;;;5052900;28;20877;-87
2021/10/05 07:17:58;;;;;;;12.63;5.95;;;12.80;99.90;;;;;;5052220;28;20463;-86
2021/10/05 07:20:24;;;;;;;12.82;5.80;;;13.00;99.90;;;;;;5034818;28;20905;-87
2021/10/05 07:22:50;;;;;;;8.63;5.30;;;13.00;99.90;;;;;;5052312;28;20392;-88
2021/10/05 07:25:16;;;;;;;12.33;6.50;;;13.10;99.90;;;;;;5035137;28;20388;-86
2021/10/05 07:27:50;;;;;;;11.77;5.78;;;13.20;99.90;;;;;;5033419;28;20385;-84
2021/10/05 07:30:17;;;;;;;11.65;6.13;;;13.20;99.90;;;;;;5032456;28;20385;-87
2021/10/05 07:32:42;;;;;;;11.45;6.13;;;13.30;99.90;;;;;;5032452;28;20876;-86
2021/10/05 07:35:08;;;;;;;12.40;6.40;;;13.30;99.90;;;;;;5015025;28;20396;-86
2021/10/05 07:37:34;;;;;;;13.57;6.37;;;13.30;99.90;;;;;;5014427;28;20871;-87
2021/10/05 07:40:00;;;;;;;10.63;6.53;;;13.30;99.90;;;;;;5017576;28;20470;-85
2021/10/05 07:42:25;;;;;;;10.30;6.22;;;13.30;99.90;;;;;;5031358;28;20437;-85
2021/10/05 07:44:51;;;;;;;11.80;6.93;;;13.30;99.90;;;;;;5014729;28;20384;-83
2021/10/05 07:47:17;;;;;;;13.30;7.43;;;13.20;99.90;;;;;;5014507;28;20370;-85
2021/10/05 07:49:43;;;;;;;12.17;7.70;;;13.20;99.90;;;;;;5016047;28;20393;-85
2021/10/05 07:52:09;;;;;;;10.98;7.18;;;13.20;99.90;;;;;;5032266;28;20798;-83
2021/10/05 07:54:36;;;;;;;12.60;7.85;;;13.20;99.90;;;;;;5033129;28;20382;-87
2021/10/05 07:57:03;;;;;;;12.18;8.25;;;13.20;99.90;;;;;;5013642;28;20390;-86
2021/10/05 07:59:29;;;;;;;13.27;8.25;;;13.10;99.90;;;;;;5013944;28;20382;-84
2021/10/05 08:01:58;;;;;;;15.10;9.02;;;13.20;99.90;;;;;;5014741;28;20377;-85
2021/10/05 08:04:23;;;;;;;12.85;9.23;;;13.20;99.90;;;;;;5020518;28;20379;-87
2021/10/05 08:06:55;;;;;;;14.13;8.77;;;13.20;99.90;;;;;;5033711;28;20375;-85
2021/10/05 08:09:21;;;;;;;14.82;9.52;;;13.30;99.90;;;;;;5051804;28;20368;-85
2021/10/05 08:11:57;;;;;;;14.00;10.18;;;13.20;99.90;;;;;;5050704;28;20372;-85
2021/10/05 08:14:23;;;;;;;15.70;10.48;;;13.20;99.90;;;;;;5040156;28;20387;-85
2021/10/05 08:16:49;;;;;;;15.68;10.68;;;13.30;99.90;;;;;;5033110;28;20832;-87
2021/10/05 08:19:15;;;;;;;15.67;10.60;;;13.30;99.90;;;;;;5052760;28;20363;-85
2021/10/05 08:21:41;;;;;;;14.13;10.37;;;13.40;99.90;;;;;;5051268;28;20869;-86
2021/10/05 08:24:07;;;;;;;14.80;10.65;;;13.40;99.90;;;;;;5033342;28;20456;-86
2021/10/05 08:26:32;;;;;;;16.13;11.80;;;13.50;99.90;;;;;;5049114;28;20908;-84
2021/10/05 08:28:58;;;;;;;16.00;13.35;;;13.40;99.90;;;;;;5030702;28;20365;-85
2021/10/05 08:31:24;;;;;;;14.57;11.10;;;13.50;99.90;;;;;;5031176;28;20373;-86
2021/10/05 08:33:50;;;;;;;21.50;17.83;;;13.60;99.90;;;;;;5013623;28;20402;-86
2021/10/05 08:36:19;;;;;;;22.35;18.15;;;13.60;99.90;;;;;;5014320;28;20377;-86
2021/10/05 08:38:45;;;;;;;12.75;10.50;;;13.70;99.90;;;;;;5046144;28;20396;-87
2021/10/05 08:41:11;;;;;;;15.43;11.25;;;13.60;99.90;;;;;;5013290;28;20378;-86
2021/10/05 08:43:37;;;;;;;21.52;17.63;;;13.70;99.90;;;;;;5013349;28;20421;-85
2021/10/05 08:46:03;;;;;;;17.52;12.13;;;13.70;99.90;;;;;;5030912;28;20409;-86
2021/10/05 08:48:31;;;;;;;14.15;10.65;;;13.80;99.90;;;;;;5030225;28;20388;-85
2021/10/05 08:50:57;;;;;;;15.55;11.85;;;13.90;99.90;;;;;;5050566;28;20470;-84
2021/10/05 08:53:23;;;;;;;18.08;12.65;;;13.90;99.90;;;;;;5050454;28;20508;-84
2021/10/05 08:55:48;;;;;;;20.47;14.70;;;13.90;99.90;;;;;;5039655;28;20378;-87
2021/10/05 08:58:14;;;;;;;18.17;15.77;;;13.80;99.90;;;;;;5048229;28;20379;-85
2021/10/05 09:00:39;;;;;;;16.30;12.97;;;13.90;99.90;;;;;;5032888;28;20368;-85
2021/10/05 09:03:05;;;;;;;15.82;12.45;;;13.80;99.90;;;;;;5032435;28;20581;-86
2021/10/05 09:05:30;;;;;;;20.90;16.10;;;13.90;99.90;;;;;;5050599;28;20364;-85
2021/10/05 09:07:57;;;;;;;26.13;23.57;;;13.80;99.90;;;;;;5020335;28;20871;-86
2021/10/05 09:10:30;;;;;;;19.60;17.40;;;13.80;99.90;;;;;;5035379;28;20733;-86
2021/10/05 09:12:56;;;;;;;17.65;15.25;;;13.70;99.90;;;;;;5050291;28;20428;-87
2021/10/05 09:15:22;;;;;;;17.98;15.55;;;13.80;99.90;;;;;;5032565;28;20415;-85
2021/10/05 09:17:56;;;;;;;17.45;13.27;;;13.80;99.90;;;;;;5036723;28;20389;-87
2021/10/05 09:20:28;;;;;;;15.77;13.63;;;13.90;99.90;;;;;;5030069;28;20374;-88
2021/10/05 09:23:00;;;;;;;17.52;13.88;;;13.90;99.90;;;;;;5012726;28;20369;-85
2021/10/05 09:25:34;;;;;;;17.27;14.43;;;13.90;99.90;;;;;;5042060;28;20375;-85
2021/10/05 09:28:12;;;;;;;17.45;14.98;;;13.80;99.90;;;;;;5012591;28;20860;-84
2021/10/05 09:30:38;;;;;;;17.55;15.65;;;13.70;99.90;;;;;;5030461;28;20409;-87
2021/10/05 09:33:04;;;;;;;16.85;15.15;;;13.70;99.90;;;;;;5030342;28;20503;-86
2021/10/05 09:35:44;;;;;;;17.80;16.00;;;13.80;99.90;;;;;;5030323;28;20377;-84
2021/10/05 09:38:11;;;;;;;19.40;16.95;;;13.70;99.90;;;;;;5030216;28;20365;-84
2021/10/05 09:40:36;;;;;;;17.90;16.05;;;13.70;99.90;;;;;;5034764;28;20381;-85
2021/10/05 09:43:02;;;;;;;21.92;16.48;;;13.70;99.90;;;;;;5020515;28;20386;-85
2021/10/05 09:45:34;;;;;;;19.33;17.33;;;13.80;99.90;;;;;;5049941;28;20853;-86
2021/10/05 09:48:08;;;;;;;20.83;18.55;;;13.70;99.90;;;;;;5049714;28;20380;-85
2021/10/05 09:50:35;;;;;;;21.67;19.33;;;13.70;99.90;;;;;;5032294;28;20386;-86
2021/10/05 09:53:08;;;;;;;19.83;17.55;;;13.70;99.90;;;;;;5046694;28;20399;-85
2021/10/05 09:55:35;;;;;;;19.10;17.20;;;13.80;99.90;;;;;;5050290;28;20360;-86
2021/10/05 09:58:02;;;;;;;18.98;17.08;;;13.90;99.90;;;;;;5048563;28;20445;-87
2021/10/05 10:00:31;;;;;;;19.38;17.35;;;13.90;99.90;;;;;;5031222;28;20376;-86
2021/10/05 10:02:57;;;;;;;18.98;17.02;;;13.90;99.90;;;;;;5049000;28;20495;-85
2021/10/05 10:05:25;;;;;;;19.00;17.13;;;13.80;99.90;;;;;;5017088;28;20460;-87
2021/10/05 10:07:52;;;;;;;43.43;38.73;;;13.90;99.90;;;;;;5031902;28;20442;-84
2021/10/05 10:10:30;;;;;;;29.75;26.92;;;13.90;99.90;;;;;;5031691;28;20383;-87
2021/10/05 10:13:02;;;;;;;19.05;17.08;;;14.00;99.90;;;;;;5031084;28;20893;-86
2021/10/05 10:15:31;;;;;;;19.87;17.97;;;14.00;99.90;;;;;;5030971;28;20430;-85
2021/10/05 10:18:11;;;;;;;21.80;19.50;;;13.90;99.90;;;;;;5046926;28;20880;-85
2021/10/05 10:20:42;;;;;;;21.13;18.92;;;13.90;99.90;;;;;;5030934;28;20769;-86
2021/10/05 10:23:19;;;;;;;21.63;19.45;;;14.00;99.90;;;;;;5051087;28;20968;-86
2021/10/05 10:25:56;;;;;;;21.52;19.45;;;14.00;99.90;;;;;;5034556;28;20474;-88
2021/10/05 10:28:37;;;;;;;22.05;19.85;;;13.90;99.90;;;;;;5051841;28;20470;-86
2021/10/05 10:31:08;;;;;;;21.48;19.27;;;13.90;99.90;;;;;;5017582;28;20441;-86
2021/10/05 10:33:54;;;;;;;20.67;18.58;;;13.90;99.90;;;;;;5014914;28;20389;-85
2021/10/05 10:36:42;;;;;;;21.33;19.15;;;13.90;99.90;;;;;;5014589;28;20377;-88
2021/10/05 10:39:13;;;;;;;19.60;17.70;;;13.90;99.90;;;;;;5016205;28;20460;-85
2021/10/05 10:41:42;;;;;;;18.93;17.13;;;14.00;99.90;;;;;;5035257;28;20453;-87
2021/10/05 10:44:12;;;;;;;19.23;17.42;;;14.00;99.90;;;;;;5028211;28;20419;-88
2021/10/05 10:46:40;;;;;;;18.67;16.88;;;14.00;99.90;;;;;;5027446;28;20368;-84
2021/10/05 10:49:19;;;;;;;18.90;17.15;;;14.00;99.90;;;;;;5051459;28;20734;-85
2021/10/05 10:51:47;;;;;;;16.13;14.52;;;14.10;99.90;;;;;;5051777;28;20367;-86
2021/10/05 10:54:16;;;;;;;15.05;13.55;;;14.20;99.90;;;;;;5033787;28;20392;-84
2021/10/05 10:56:43;;;;;;;14.98;13.50;;;14.20;99.90;;;;;;4902272;28;3797831;-85
2021/10/05 10:59:10;;;;;;;13.32;12.20;;;14.40;99.90;;;;;;5052595;28;20744;-85
2021/10/05 11:01:40;;;;;;;13.60;12.40;;;14.50;99.90;;;;;;5026080;28;20457;-85
2021/10/05 11:04:08;;;;;;;14.05;12.75;;;14.50;99.90;;;;;;5050629;28;20847;-84
2021/10/05 11:06:34;;;;;;;13.23;12.02;;;14.50;99.90;;;;;;5046598;28;20385;-85
2021/10/05 11:09:01;;;;;;;13.27;12.02;;;14.50;99.90;;;;;;5045643;28;20479;-84
2021/10/05 11:11:31;;;;;;;12.75;11.65;;;14.50;99.90;;;;;;5034946;28;20383;-84
2021/10/05 11:14:01;;;;;;;14.30;13.00;;;14.50;99.90;;;;;;5052390;28;20429;-84
2021/10/05 11:16:27;;;;;;;14.00;12.60;;;14.40;99.90;;;;;;5049219;28;20384;-85
2021/10/05 11:19:08;;;;;;;12.00;10.90;;;14.40;99.90;;;;;;5035871;28;20379;-85
2021/10/05 11:21:36;;;;;;;12.27;11.23;;;14.50;99.90;;;;;;5052201;28;20363;-85
2021/10/05 11:24:02;;;;;;;11.23;10.23;;;14.60;99.90;;;;;;5048167;28;20448;-84
2021/10/05 11:26:51;;;;;;;11.97;10.87;;;14.70;99.90;;;;;;5032373;28;20377;-85
2021/10/05 11:29:26;;;;;;;11.43;10.52;;;14.80;99.90;;;;;;5025341;28;20373;-86
2021/10/05 11:31:58;;;;;;;11.43;10.43;;;14.80;99.90;;;;;;5032525;28;20386;-83
2021/10/05 11:34:24;;;;;;;10.85;9.85;;;14.90;99.90;;;;;;5043476;28;20406;-85
2021/10/05 11:36:51;;;;;;;14.10;11.13;;;14.90;99.90;;;;;;5051715;28;20407;-84
2021/10/05 11:39:23;;;;;;;11.50;10.50;;;15.00;99.90;;;;;;5051480;28;20371;-83
2021/10/05 11:41:50;;;;;;;13.23;11.10;;;15.00;99.90;;;;;;5050695;28;20364;-83
2021/10/05 11:44:19;;;;;;;13.63;12.23;;;15.10;99.90;;;;;;5039258;28;20391;-84
2021/10/05 11:46:52;;;;;;;12.10;10.93;;;15.10;99.90;;;;;;5014115;28;20382;-84
2021/10/05 11:49:18;;;;;;;12.75;11.57;;;15.20;99.90;;;;;;5016287;28;20395;-83
2021/10/05 11:51:44;;;;;;;12.30;11.20;;;15.20;99.90;;;;;;5043836;28;20803;-84
2021/10/05 11:54:20;;;;;;;12.68;11.55;;;15.20;99.90;;;;;;5038715;28;20395;-83
2021/10/05 11:56:46;;;;;;;13.90;12.60;;;15.30;99.90;;;;;;5052352;28;20382;-84
2021/10/05 11:59:22;;;;;;;14.20;12.80;;;15.30;99.90;;;;;;5053680;28;20436;-84
2021/10/05 12:01:47;;;;;;;12.75;11.65;;;15.40;99.90;;;;;;5050730;28;20456;-85
2021/10/05 12:04:13;;;;;;;11.90;10.82;;;15.40;99.90;;;;;;5051664;28;20455;-85
2021/10/05 12:06:41;;;;;;;13.70;12.37;;;15.50;99.90;;;;;;5033916;28;20848;-85
2021/10/05 12:09:08;;;;;;;12.00;10.90;;;15.60;99.90;;;;;;5051067;28;20368;-85
2021/10/05 12:11:41;;;;;;;11.77;10.60;;;15.70;99.90;;;;;;5051428;28;20423;-84
2021/10/05 12:14:08;;;;;;;12.35;11.15;;;15.70;99.90;;;;;;5047520;28;20392;-85
2021/10/05 12:16:34;;;;;;;12.45;11.40;;;15.70;99.90;;;;;;5050908;28;20376;-85
2021/10/05 12:19:00;;;;;;;11.33;10.33;;;15.70;99.90;;;;;;5050980;28;20370;-86
2021/10/05 12:21:26;;;;;;;12.50;11.40;;;15.70;99.90;;;;;;5033565;28;21180;-85
2021/10/05 12:23:56;;;;;;;12.32;11.25;;;15.70;99.90;;;;;;5050867;28;20857;-85
2021/10/05 12:26:22;;;;;;;11.40;10.50;;;15.70;99.90;;;;;;5050414;28;20379;-84
2021/10/05 12:29:14;;;;;;;11.97;10.87;;;15.70;99.90;;;;;;5053388;28;20792;-84
2021/10/05 12:31:39;;;;;;;12.85;11.73;;;15.70;99.90;;;;;;5053056;28;20380;-85
2021/10/05 12:34:07;;;;;;;12.52;11.35;;;15.70;99.90;;;;;;5057442;28;20381;-84
2021/10/05 12:36:35;;;;;;;12.17;11.07;;;15.60;99.90;;;;;;5058156;28;20428;-84